sensor_id;sensor_type;location;lat;lon;timestamp;pressure;altitude;pressure_sealevel;temperature;humidity
3082;BME280;1551;51.046;7.010;2022-08-25T00:02:12;101008.97;;;25.85;41.73
3082;BME280;1551;51.046;7.010;2022-08-25T00:05:01;101021.34;;;25.95;41.34
3082;BME280;1551;51.046;7.010;2022-08-25T00:07:51;101027.75;;;25.91;41.09
3082;BME280;1551;51.046;7.010;2022-08-25T00:10:40;101026.50;;;25.97;41.81
3082;BME280;1551;51.046;7.010;2022-08-25T00:13:30;101021.25;;;25.84;41.90
3082;BME280;1551;51.046;7.010;2022-08-25T00:16:20;101027.31;;;25.72;42.22
3082;BME280;1551;51.046;7.010;2022-08-25T00:19:14;101027.94;;;25.63;42.34
3082;BME280;1551;51.046;7.010;2022-08-25T00:22:05;101026.66;;;25.44;43.00
3082;BME280;1551;51.046;7.010;2022-08-25T00:24:55;101020.47;;;25.45;44.04
3082;BME280;1551;51.046;7.010;2022-08-25T00:27:44;101020.72;;;25.67;43.95
3082;BME280;1551;51.046;7.010;2022-08-25T00:30:35;101022.06;;;25.72;44.03
3082;BME280;1551;51.046;7.010;2022-08-25T00:33:24;101022.41;;;25.80;43.96
3082;BME280;1551;51.046;7.010;2022-08-25T00:36:15;101022.72;;;25.76;44.29
3082;BME280;1551;51.046;7.010;2022-08-25T00:39:05;101030.75;;;25.48;43.84
3082;BME280;1551;51.046;7.010;2022-08-25T00:41:55;101022.88;;;25.21;44.57
3082;BME280;1551;51.046;7.010;2022-08-25T00:44:45;101020.69;;;25.15;45.08
3082;BME280;1551;51.046;7.010;2022-08-25T00:47:35;101027.44;;;25.32;45.56
3082;BME280;1551;51.046;7.010;2022-08-25T00:50:24;101028.13;;;25.48;45.25
3082;BME280;1551;51.046;7.010;2022-08-25T00:53:13;101020.50;;;25.31;45.60
3082;BME280;1551;51.046;7.010;2022-08-25T00:56:03;101025.75;;;25.31;45.75
3082;BME280;1551;51.046;7.010;2022-08-25T00:58:52;101028.19;;;25.07;45.76
3082;BME280;1551;51.046;7.010;2022-08-25T01:01:42;101030.69;;;24.68;46.75
3082;BME280;1551;51.046;7.010;2022-08-25T01:04:31;101035.84;;;24.83;46.69
3082;BME280;1551;51.046;7.010;2022-08-25T01:07:20;101015.97;;;24.93;46.69
3082;BME280;1551;51.046;7.010;2022-08-25T01:10:11;101024.78;;;25.19;46.45
3082;BME280;1551;51.046;7.010;2022-08-25T01:13:09;101022.03;;;25.08;46.54
3082;BME280;1551;51.046;7.010;2022-08-25T01:16:00;101006.63;;;24.48;47.35
3082;BME280;1551;51.046;7.010;2022-08-25T01:18:52;101018.47;;;24.68;47.55
3082;BME280;1551;51.046;7.010;2022-08-25T01:21:45;101023.88;;;24.65;47.86
3082;BME280;1551;51.046;7.010;2022-08-25T01:24:40;101023.25;;;24.62;48.15
3082;BME280;1551;51.046;7.010;2022-08-25T01:27:30;101016.44;;;24.59;48.61
3082;BME280;1551;51.046;7.010;2022-08-25T01:30:19;101017.91;;;24.77;48.55
3082;BME280;1551;51.046;7.010;2022-08-25T01:33:09;101016.22;;;24.76;48.59
3082;BME280;1551;51.046;7.010;2022-08-25T01:35:59;101025.06;;;24.88;48.16
3082;BME280;1551;51.046;7.010;2022-08-25T01:38:48;101017.19;;;24.88;48.23
3082;BME280;1551;51.046;7.010;2022-08-25T01:44:40;101024.63;;;25.08;48.10
3082;BME280;1551;51.046;7.010;2022-08-25T01:47:30;101027.56;;;25.03;48.05
3082;BME280;1551;51.046;7.010;2022-08-25T01:50:19;101023.22;;;24.90;48.31
3082;BME280;1551;51.046;7.010;2022-08-25T01:53:23;101015.97;;;24.93;48.26
3082;BME280;1551;51.046;7.010;2022-08-25T01:56:15;101032.59;;;24.80;48.68
3082;BME280;1551;51.046;7.010;2022-08-25T01:59:05;101029.84;;;24.67;48.88
3082;BME280;1551;51.046;7.010;2022-08-25T02:01:53;101020.13;;;24.83;48.71
3082;BME280;1551;51.046;7.010;2022-08-25T02:04:42;101029.56;;;24.72;48.91
3082;BME280;1551;51.046;7.010;2022-08-25T02:07:31;101034.66;;;24.46;48.74
3082;BME280;1551;51.046;7.010;2022-08-25T02:10:20;101030.28;;;24.33;49.31
3082;BME280;1551;51.046;7.010;2022-08-25T02:13:10;101024.06;;;23.91;50.32
3082;BME280;1551;51.046;7.010;2022-08-25T02:15:59;101033.97;;;23.86;50.38
3082;BME280;1551;51.046;7.010;2022-08-25T02:18:50;101032.41;;;23.54;51.64
3082;BME280;1551;51.046;7.010;2022-08-25T02:21:41;101031.84;;;23.63;51.58
3082;BME280;1551;51.046;7.010;2022-08-25T02:24:30;101030.69;;;23.83;51.53
3082;BME280;1551;51.046;7.010;2022-08-25T02:27:19;101035.03;;;23.68;51.35
3082;BME280;1551;51.046;7.010;2022-08-25T02:30:08;101037.91;;;23.50;52.28
3082;BME280;1551;51.046;7.010;2022-08-25T02:32:58;101035.81;;;23.84;52.01
3082;BME280;1551;51.046;7.010;2022-08-25T02:35:47;101037.09;;;24.07;51.69
3082;BME280;1551;51.046;7.010;2022-08-25T02:38:37;101039.28;;;24.15;51.61
3082;BME280;1551;51.046;7.010;2022-08-25T02:41:26;101031.16;;;24.04;51.70
3082;BME280;1551;51.046;7.010;2022-08-25T02:44:16;101031.44;;;23.99;51.52
3082;BME280;1551;51.046;7.010;2022-08-25T02:47:05;101030.19;;;24.06;51.80
3082;BME280;1551;51.046;7.010;2022-08-25T02:49:53;101037.19;;;24.20;51.57
3082;BME280;1551;51.046;7.010;2022-08-25T02:52:43;101031.50;;;24.27;51.51
3082;BME280;1551;51.046;7.010;2022-08-25T02:55:33;101030.47;;;24.30;51.21
3082;BME280;1551;51.046;7.010;2022-08-25T02:58:22;101026.19;;;24.29;51.47
3082;BME280;1551;51.046;7.010;2022-08-25T03:01:13;101018.94;;;24.04;51.81
3082;BME280;1551;51.046;7.010;2022-08-25T03:04:02;101013.88;;;24.01;52.00
3082;BME280;1551;51.046;7.010;2022-08-25T03:06:51;101015.72;;;24.15;51.97
3082;BME280;1551;51.046;7.010;2022-08-25T03:09:40;101006.72;;;23.90;52.28
3082;BME280;1551;51.046;7.010;2022-08-25T03:12:29;101005.69;;;23.93;52.42
3082;BME280;1551;51.046;7.010;2022-08-25T03:15:18;101006.50;;;23.65;53.19
3082;BME280;1551;51.046;7.010;2022-08-25T03:18:08;100997.09;;;23.77;52.82
3082;BME280;1551;51.046;7.010;2022-08-25T03:20:57;100996.41;;;23.87;52.92
3082;BME280;1551;51.046;7.010;2022-08-25T03:23:47;100992.16;;;23.86;52.62
3082;BME280;1551;51.046;7.010;2022-08-25T03:26:36;100993.63;;;23.76;53.21
3082;BME280;1551;51.046;7.010;2022-08-25T03:29:41;100990.25;;;23.74;53.08
3082;BME280;1551;51.046;7.010;2022-08-25T03:32:31;100987.81;;;23.57;53.55
3082;BME280;1551;51.046;7.010;2022-08-25T03:35:20;100988.75;;;23.70;53.24
3082;BME280;1551;51.046;7.010;2022-08-25T03:38:08;100990.63;;;23.82;53.30
3082;BME280;1551;51.046;7.010;2022-08-25T03:40:58;100991.31;;;23.86;52.99
3082;BME280;1551;51.046;7.010;2022-08-25T03:43:47;100989.59;;;23.85;52.92
3082;BME280;1551;51.046;7.010;2022-08-25T03:46:39;100982.59;;;23.71;53.06
3082;BME280;1551;51.046;7.010;2022-08-25T03:49:29;100988.94;;;23.67;53.44
3082;BME280;1551;51.046;7.010;2022-08-25T03:52:19;100989.41;;;23.74;53.01
3082;BME280;1551;51.046;7.010;2022-08-25T03:55:11;100988.50;;;23.75;53.12
3082;BME280;1551;51.046;7.010;2022-08-25T03:58:00;100986.53;;;23.78;53.17
3082;BME280;1551;51.046;7.010;2022-08-25T04:00:49;100982.13;;;23.79;52.72
3082;BME280;1551;51.046;7.010;2022-08-25T04:03:38;100979.53;;;23.79;52.85
3082;BME280;1551;51.046;7.010;2022-08-25T04:06:27;100969.13;;;23.77;52.94
3082;BME280;1551;51.046;7.010;2022-08-25T04:09:16;100960.38;;;23.78;53.22
3082;BME280;1551;51.046;7.010;2022-08-25T04:12:05;100954.56;;;23.59;53.13
3082;BME280;1551;51.046;7.010;2022-08-25T04:14:55;100948.91;;;23.07;54.75
3082;BME280;1551;51.046;7.010;2022-08-25T04:17:44;100949.88;;;23.36;54.39
3082;BME280;1551;51.046;7.010;2022-08-25T04:20:33;100950.63;;;23.52;53.80
3082;BME280;1551;51.046;7.010;2022-08-25T04:23:22;100951.03;;;23.60;53.72
3082;BME280;1551;51.046;7.010;2022-08-25T04:26:14;100950.81;;;23.63;53.58
3082;BME280;1551;51.046;7.010;2022-08-25T04:29:05;100951.38;;;23.54;54.00
3082;BME280;1551;51.046;7.010;2022-08-25T04:31:55;100956.25;;;23.60;53.82
3082;BME280;1551;51.046;7.010;2022-08-25T04:34:44;100959.63;;;23.62;53.87
3082;BME280;1551;51.046;7.010;2022-08-25T04:37:33;100959.53;;;23.64;53.99
3082;BME280;1551;51.046;7.010;2022-08-25T04:40:22;100961.38;;;23.48;54.13
3082;BME280;1551;51.046;7.010;2022-08-25T04:43:11;100959.50;;;23.50;54.64
3082;BME280;1551;51.046;7.010;2022-08-25T04:46:08;100955.25;;;23.63;54.72
3082;BME280;1551;51.046;7.010;2022-08-25T04:49:01;100959.81;;;23.73;54.01
3082;BME280;1551;51.046;7.010;2022-08-25T04:51:50;100959.47;;;23.79;53.82
3082;BME280;1551;51.046;7.010;2022-08-25T04:54:40;100956.63;;;23.82;53.80
3082;BME280;1551;51.046;7.010;2022-08-25T04:57:29;100956.75;;;23.81;53.51
3082;BME280;1551;51.046;7.010;2022-08-25T05:00:18;100955.03;;;23.80;53.61
3082;BME280;1551;51.046;7.010;2022-08-25T05:03:08;100957.38;;;23.84;53.83
3082;BME280;1551;51.046;7.010;2022-08-25T05:05:57;100959.72;;;23.89;53.46
3082;BME280;1551;51.046;7.010;2022-08-25T05:08:46;100948.34;;;23.90;53.61
3082;BME280;1551;51.046;7.010;2022-08-25T05:11:36;100951.69;;;23.92;53.40
3082;BME280;1551;51.046;7.010;2022-08-25T05:14:25;100947.31;;;23.92;53.30
3082;BME280;1551;51.046;7.010;2022-08-25T05:17:14;100949.06;;;23.92;53.39
3082;BME280;1551;51.046;7.010;2022-08-25T05:20:03;100957.19;;;23.87;53.11
3082;BME280;1551;51.046;7.010;2022-08-25T05:22:52;100959.75;;;23.75;53.35
3082;BME280;1551;51.046;7.010;2022-08-25T05:25:41;100949.34;;;23.87;53.51
3082;BME280;1551;51.046;7.010;2022-08-25T05:28:30;100953.75;;;24.01;53.04
3082;BME280;1551;51.046;7.010;2022-08-25T05:31:21;100950.41;;;24.13;52.97
3082;BME280;1551;51.046;7.010;2022-08-25T05:34:11;100937.31;;;24.13;52.55
3082;BME280;1551;51.046;7.010;2022-08-25T05:37:00;100946.41;;;24.22;52.52
3082;BME280;1551;51.046;7.010;2022-08-25T05:39:51;100934.59;;;24.29;51.98
3082;BME280;1551;51.046;7.010;2022-08-25T05:42:40;100948.16;;;24.21;52.42
3082;BME280;1551;51.046;7.010;2022-08-25T05:45:29;100933.47;;;24.33;52.31
3082;BME280;1551;51.046;7.010;2022-08-25T05:48:18;100932.16;;;24.40;51.82
3082;BME280;1551;51.046;7.010;2022-08-25T05:51:09;100930.56;;;24.37;52.02
3082;BME280;1551;51.046;7.010;2022-08-25T05:53:59;100931.41;;;24.38;52.38
3082;BME280;1551;51.046;7.010;2022-08-25T05:56:48;100934.31;;;24.33;52.08
3082;BME280;1551;51.046;7.010;2022-08-25T05:59:37;100938.22;;;24.40;51.83
3082;BME280;1551;51.046;7.010;2022-08-25T06:02:25;100938.84;;;24.44;51.79
3082;BME280;1551;51.046;7.010;2022-08-25T06:05:31;100938.00;;;24.43;52.23
3082;BME280;1551;51.046;7.010;2022-08-25T06:08:21;100928.19;;;24.47;52.41
3082;BME280;1551;51.046;7.010;2022-08-25T06:11:11;100928.28;;;24.72;51.51
3082;BME280;1551;51.046;7.010;2022-08-25T06:14:00;100928.03;;;24.77;51.48
3082;BME280;1551;51.046;7.010;2022-08-25T06:16:49;100929.41;;;24.82;51.51
3082;BME280;1551;51.046;7.010;2022-08-25T06:19:39;100932.34;;;24.90;51.41
3082;BME280;1551;51.046;7.010;2022-08-25T06:22:28;100926.75;;;24.96;51.65
3082;BME280;1551;51.046;7.010;2022-08-25T06:25:21;100931.47;;;25.04;51.51
3082;BME280;1551;51.046;7.010;2022-08-25T06:28:10;100936.72;;;25.16;50.79
3082;BME280;1551;51.046;7.010;2022-08-25T06:31:00;100937.50;;;25.31;50.70
3082;BME280;1551;51.046;7.010;2022-08-25T06:33:50;100939.38;;;25.42;50.71
3082;BME280;1551;51.046;7.010;2022-08-25T06:36:40;100946.34;;;25.68;50.01
3082;BME280;1551;51.046;7.010;2022-08-25T06:39:29;100946.22;;;25.94;49.16
3082;BME280;1551;51.046;7.010;2022-08-25T06:42:18;100942.97;;;26.16;48.86
3082;BME280;1551;51.046;7.010;2022-08-25T06:45:08;100941.19;;;26.40;48.22
3082;BME280;1551;51.046;7.010;2022-08-25T06:47:57;100953.50;;;26.76;47.89
3082;BME280;1551;51.046;7.010;2022-08-25T06:50:46;100956.66;;;26.92;47.56
3082;BME280;1551;51.046;7.010;2022-08-25T06:53:35;100967.66;;;27.21;47.19
3082;BME280;1551;51.046;7.010;2022-08-25T06:56:25;100967.41;;;27.48;46.22
3082;BME280;1551;51.046;7.010;2022-08-25T06:59:13;100954.84;;;27.62;45.85
3082;BME280;1551;51.046;7.010;2022-08-25T07:02:03;100962.16;;;27.81;45.55
3082;BME280;1551;51.046;7.010;2022-08-25T07:04:53;100963.38;;;27.88;44.73
3082;BME280;1551;51.046;7.010;2022-08-25T07:07:42;100958.03;;;28.01;44.80
3082;BME280;1551;51.046;7.010;2022-08-25T07:10:34;100953.72;;;28.22;44.26
3082;BME280;1551;51.046;7.010;2022-08-25T07:13:23;100950.94;;;28.34;43.86
3082;BME280;1551;51.046;7.010;2022-08-25T07:16:13;100944.06;;;28.54;43.58
3082;BME280;1551;51.046;7.010;2022-08-25T07:19:06;100947.63;;;28.75;43.34
3082;BME280;1551;51.046;7.010;2022-08-25T07:21:55;100942.34;;;28.75;43.14
3082;BME280;1551;51.046;7.010;2022-08-25T07:24:44;100951.31;;;28.84;42.70
3082;BME280;1551;51.046;7.010;2022-08-25T07:27:33;100948.69;;;28.84;42.77
3082;BME280;1551;51.046;7.010;2022-08-25T07:30:22;100946.69;;;28.97;42.48
3082;BME280;1551;51.046;7.010;2022-08-25T07:33:12;100941.22;;;29.20;41.94
3082;BME280;1551;51.046;7.010;2022-08-25T07:36:01;100946.22;;;29.44;41.83
3082;BME280;1551;51.046;7.010;2022-08-25T07:38:51;100949.94;;;29.62;41.45
3082;BME280;1551;51.046;7.010;2022-08-25T07:41:40;100948.53;;;29.58;41.33
3082;BME280;1551;51.046;7.010;2022-08-25T07:44:31;100952.81;;;29.80;41.35
3082;BME280;1551;51.046;7.010;2022-08-25T07:47:21;100954.25;;;29.84;40.67
3082;BME280;1551;51.046;7.010;2022-08-25T07:50:11;100955.41;;;29.70;40.87
3082;BME280;1551;51.046;7.010;2022-08-25T07:53:00;100959.25;;;29.87;41.00
3082;BME280;1551;51.046;7.010;2022-08-25T07:55:50;100950.88;;;30.12;40.52
3082;BME280;1551;51.046;7.010;2022-08-25T07:58:39;100953.31;;;30.34;39.89
3082;BME280;1551;51.046;7.010;2022-08-25T08:01:29;100948.47;;;30.39;39.91
3082;BME280;1551;51.046;7.010;2022-08-25T08:04:18;100953.63;;;30.60;39.82
3082;BME280;1551;51.046;7.010;2022-08-25T08:07:07;100948.00;;;30.93;39.35
3082;BME280;1551;51.046;7.010;2022-08-25T08:09:56;100958.28;;;31.15;38.52
3082;BME280;1551;51.046;7.010;2022-08-25T08:12:45;100952.69;;;31.18;38.31
3082;BME280;1551;51.046;7.010;2022-08-25T08:15:35;100950.78;;;31.11;38.06
3082;BME280;1551;51.046;7.010;2022-08-25T08:18:25;100944.06;;;31.07;38.27
3082;BME280;1551;51.046;7.010;2022-08-25T08:21:21;100949.25;;;31.08;38.55
3082;BME280;1551;51.046;7.010;2022-08-25T08:24:10;100944.50;;;31.12;38.67
3082;BME280;1551;51.046;7.010;2022-08-25T08:26:59;100935.56;;;31.42;38.19
3082;BME280;1551;51.046;7.010;2022-08-25T08:29:48;100930.22;;;31.51;37.68
3082;BME280;1551;51.046;7.010;2022-08-25T08:32:38;100928.44;;;31.52;37.52
3082;BME280;1551;51.046;7.010;2022-08-25T08:35:27;100930.75;;;31.64;37.48
3082;BME280;1551;51.046;7.010;2022-08-25T08:38:16;100925.94;;;31.87;36.80
3082;BME280;1551;51.046;7.010;2022-08-25T08:44:41;100918.25;;;32.21;36.79
3082;BME280;1551;51.046;7.010;2022-08-25T08:50:38;100915.38;;;32.32;36.50
3082;BME280;1551;51.046;7.010;2022-08-25T08:53:40;100913.09;;;32.82;35.99
3082;BME280;1551;51.046;7.010;2022-08-25T08:56:35;100907.94;;;32.63;35.76
3082;BME280;1551;51.046;7.010;2022-08-25T08:59:33;100910.38;;;32.56;36.32
3082;BME280;1551;51.046;7.010;2022-08-25T09:05:26;100905.03;;;33.09;35.55
3082;BME280;1551;51.046;7.010;2022-08-25T09:08:16;100896.13;;;33.18;34.87
3082;BME280;1551;51.046;7.010;2022-08-25T09:14:55;100893.94;;;33.13;35.10
3082;BME280;1551;51.046;7.010;2022-08-25T09:23:55;100891.56;;;33.54;34.29
3082;BME280;1551;51.046;7.010;2022-08-25T09:26:57;100890.13;;;34.01;34.04
3082;BME280;1551;51.046;7.010;2022-08-25T09:30:09;100888.88;;;34.37;33.06
3082;BME280;1551;51.046;7.010;2022-08-25T09:32:59;100880.63;;;33.99;33.46
3082;BME280;1551;51.046;7.010;2022-08-25T09:35:53;100881.91;;;34.28;33.22
3082;BME280;1551;51.046;7.010;2022-08-25T09:38:43;100882.41;;;34.40;32.83
3082;BME280;1551;51.046;7.010;2022-08-25T09:41:49;100879.63;;;34.66;32.57
3082;BME280;1551;51.046;7.010;2022-08-25T09:44:44;100877.16;;;34.88;32.21
3082;BME280;1551;51.046;7.010;2022-08-25T09:47:41;100859.38;;;34.65;32.35
3082;BME280;1551;51.046;7.010;2022-08-25T09:50:31;100859.34;;;34.81;32.02
3082;BME280;1551;51.046;7.010;2022-08-25T09:53:21;100861.34;;;34.95;31.85
3082;BME280;1551;51.046;7.010;2022-08-25T09:56:10;100862.47;;;35.33;30.74
3082;BME280;1551;51.046;7.010;2022-08-25T10:02:27;100852.94;;;35.85;30.00
3082;BME280;1551;51.046;7.010;2022-08-25T10:05:20;100855.09;;;36.66;29.49
3082;BME280;1551;51.046;7.010;2022-08-25T10:08:21;100861.28;;;37.03;28.35
3082;BME280;1551;51.046;7.010;2022-08-25T10:11:12;100857.00;;;37.46;28.03
3082;BME280;1551;51.046;7.010;2022-08-25T10:14:35;100855.25;;;38.04;26.91
3082;BME280;1551;51.046;7.010;2022-08-25T10:17:31;100850.84;;;38.17;26.41
3082;BME280;1551;51.046;7.010;2022-08-25T10:20:25;100852.53;;;38.61;26.00
3082;BME280;1551;51.046;7.010;2022-08-25T10:23:14;100852.28;;;38.56;26.26
3082;BME280;1551;51.046;7.010;2022-08-25T10:26:10;100848.81;;;38.83;25.47
3082;BME280;1551;51.046;7.010;2022-08-25T10:32:08;100841.91;;;39.23;25.22
3082;BME280;1551;51.046;7.010;2022-08-25T10:35:10;100846.75;;;39.40;24.27
3082;BME280;1551;51.046;7.010;2022-08-25T10:45:16;100829.31;;;40.11;24.49
3082;BME280;1551;51.046;7.010;2022-08-25T10:48:54;100832.59;;;40.33;23.84
3082;BME280;1551;51.046;7.010;2022-08-25T10:51:59;100828.06;;;40.40;23.46
3082;BME280;1551;51.046;7.010;2022-08-25T10:55:06;100810.31;;;40.39;22.73
3082;BME280;1551;51.046;7.010;2022-08-25T10:58:28;100812.59;;;40.29;23.73
3082;BME280;1551;51.046;7.010;2022-08-25T11:01:34;100814.66;;;40.33;22.86
3082;BME280;1551;51.046;7.010;2022-08-25T11:07:49;100807.41;;;41.12;22.59
3082;BME280;1551;51.046;7.010;2022-08-25T11:10:44;100811.44;;;41.41;21.28
3082;BME280;1551;51.046;7.010;2022-08-25T11:13:40;100812.31;;;41.15;21.73
3082;BME280;1551;51.046;7.010;2022-08-25T11:16:40;100798.91;;;41.09;20.71
3082;BME280;1551;51.046;7.010;2022-08-25T11:19:36;100804.97;;;40.32;21.97
3082;BME280;1551;51.046;7.010;2022-08-25T11:22:42;100790.94;;;40.63;21.74
3082;BME280;1551;51.046;7.010;2022-08-25T11:25:53;100787.22;;;40.58;22.15
3082;BME280;1551;51.046;7.010;2022-08-25T11:31:46;100794.84;;;40.67;21.61
3082;BME280;1551;51.046;7.010;2022-08-25T11:34:37;100786.16;;;40.98;21.31
3082;BME280;1551;51.046;7.010;2022-08-25T11:37:28;100786.78;;;40.41;21.94
3082;BME280;1551;51.046;7.010;2022-08-25T11:44:00;100790.19;;;41.77;20.75
3082;BME280;1551;51.046;7.010;2022-08-25T11:50:08;100782.59;;;41.68;21.35
3082;BME280;1551;51.046;7.010;2022-08-25T11:53:25;100772.78;;;42.11;20.99
3082;BME280;1551;51.046;7.010;2022-08-25T11:56:33;100776.38;;;42.55;20.63
3082;BME280;1551;51.046;7.010;2022-08-25T12:02:52;100767.63;;;42.59;20.20
3082;BME280;1551;51.046;7.010;2022-08-25T12:08:51;100761.31;;;43.08;19.80
3082;BME280;1551;51.046;7.010;2022-08-25T12:11:44;100757.97;;;42.94;19.86
3082;BME280;1551;51.046;7.010;2022-08-25T12:14:41;100755.34;;;42.20;20.47
3082;BME280;1551;51.046;7.010;2022-08-25T12:17:37;100748.06;;;42.21;20.66
3082;BME280;1551;51.046;7.010;2022-08-25T12:24:06;100734.97;;;41.75;20.73
3082;BME280;1551;51.046;7.010;2022-08-25T12:26:59;100738.44;;;41.82;20.41
3082;BME280;1551;51.046;7.010;2022-08-25T12:36:38;100723.78;;;41.34;21.07
3082;BME280;1551;51.046;7.010;2022-08-25T12:39:31;100717.94;;;40.99;21.53
3082;BME280;1551;51.046;7.010;2022-08-25T12:42:29;100716.91;;;41.82;20.86
3082;BME280;1551;51.046;7.010;2022-08-25T12:51:17;100718.88;;;41.62;20.84
3082;BME280;1551;51.046;7.010;2022-08-25T12:57:44;100714.78;;;41.53;20.91
3082;BME280;1551;51.046;7.010;2022-08-25T13:00:50;100724.59;;;41.41;20.46
3082;BME280;1551;51.046;7.010;2022-08-25T13:15:47;100693.44;;;41.20;21.20
3082;BME280;1551;51.046;7.010;2022-08-25T13:18:45;100690.94;;;41.25;21.48
3082;BME280;1551;51.046;7.010;2022-08-25T13:21:40;100689.44;;;41.42;21.32
3082;BME280;1551;51.046;7.010;2022-08-25T13:24:35;100684.06;;;40.85;21.60
3082;BME280;1551;51.046;7.010;2022-08-25T13:27:34;100676.50;;;40.69;21.63
3082;BME280;1551;51.046;7.010;2022-08-25T13:30:35;100665.16;;;40.67;21.55
3082;BME280;1551;51.046;7.010;2022-08-25T13:33:24;100679.03;;;40.51;21.77
3082;BME280;1551;51.046;7.010;2022-08-25T13:36:15;100670.31;;;40.62;21.40
3082;BME280;1551;51.046;7.010;2022-08-25T13:39:25;100668.47;;;40.42;21.79
3082;BME280;1551;51.046;7.010;2022-08-25T13:42:16;100660.88;;;39.67;21.98
3082;BME280;1551;51.046;7.010;2022-08-25T13:45:06;100662.44;;;39.36;22.46
3082;BME280;1551;51.046;7.010;2022-08-25T13:47:55;100661.63;;;39.29;22.78
3082;BME280;1551;51.046;7.010;2022-08-25T13:50:45;100663.84;;;39.25;22.08
3082;BME280;1551;51.046;7.010;2022-08-25T13:53:34;100651.84;;;38.67;22.27
3082;BME280;1551;51.046;7.010;2022-08-25T13:56:31;100659.69;;;38.34;22.82
3082;BME280;1551;51.046;7.010;2022-08-25T13:59:34;100657.88;;;38.76;23.03
3082;BME280;1551;51.046;7.010;2022-08-25T14:05:40;100654.78;;;38.72;22.86
3082;BME280;1551;51.046;7.010;2022-08-25T14:08:33;100649.97;;;38.06;23.49
3082;BME280;1551;51.046;7.010;2022-08-25T14:11:30;100645.13;;;38.16;23.42
3082;BME280;1551;51.046;7.010;2022-08-25T14:17:16;100639.50;;;38.04;23.29
3082;BME280;1551;51.046;7.010;2022-08-25T14:20:26;100632.69;;;38.29;23.11
3082;BME280;1551;51.046;7.010;2022-08-25T14:23:19;100631.91;;;38.35;23.14
3082;BME280;1551;51.046;7.010;2022-08-25T14:26:09;100637.69;;;38.39;23.70
3082;BME280;1551;51.046;7.010;2022-08-25T14:28:58;100632.09;;;38.68;22.60
3082;BME280;1551;51.046;7.010;2022-08-25T14:31:47;100634.03;;;38.46;22.82
3082;BME280;1551;51.046;7.010;2022-08-25T14:34:37;100635.22;;;38.37;22.87
3082;BME280;1551;51.046;7.010;2022-08-25T14:37:27;100624.56;;;38.85;22.66
3082;BME280;1551;51.046;7.010;2022-08-25T14:40:17;100627.75;;;38.67;22.84
3082;BME280;1551;51.046;7.010;2022-08-25T14:43:07;100625.41;;;38.51;23.05
3082;BME280;1551;51.046;7.010;2022-08-25T14:45:56;100625.53;;;38.36;23.23
3082;BME280;1551;51.046;7.010;2022-08-25T14:48:48;100623.09;;;38.14;23.09
3082;BME280;1551;51.046;7.010;2022-08-25T14:51:40;100615.63;;;38.30;22.38
3082;BME280;1551;51.046;7.010;2022-08-25T14:54:30;100620.38;;;38.07;22.42
3082;BME280;1551;51.046;7.010;2022-08-25T14:57:19;100616.28;;;38.11;22.88
3082;BME280;1551;51.046;7.010;2022-08-25T15:00:08;100595.03;;;37.75;23.03
3082;BME280;1551;51.046;7.010;2022-08-25T15:02:59;100611.00;;;37.69;23.77
3082;BME280;1551;51.046;7.010;2022-08-25T15:05:48;100601.16;;;37.48;23.27
3082;BME280;1551;51.046;7.010;2022-08-25T15:08:37;100609.34;;;37.68;23.35
3082;BME280;1551;51.046;7.010;2022-08-25T15:11:48;100601.13;;;37.27;23.95
3082;BME280;1551;51.046;7.010;2022-08-25T15:14:37;100596.16;;;37.24;24.48
3082;BME280;1551;51.046;7.010;2022-08-25T15:17:28;100590.66;;;36.90;23.64
3082;BME280;1551;51.046;7.010;2022-08-25T15:20:17;100586.59;;;36.79;24.42
3082;BME280;1551;51.046;7.010;2022-08-25T15:23:06;100583.88;;;36.58;25.06
3082;BME280;1551;51.046;7.010;2022-08-25T15:25:56;100581.03;;;36.60;24.82
3082;BME280;1551;51.046;7.010;2022-08-25T15:28:47;100578.03;;;36.48;24.64
3082;BME280;1551;51.046;7.010;2022-08-25T15:31:37;100571.19;;;36.31;25.04
3082;BME280;1551;51.046;7.010;2022-08-25T15:34:28;100564.81;;;36.32;25.21
3082;BME280;1551;51.046;7.010;2022-08-25T15:37:18;100575.06;;;36.28;25.58
3082;BME280;1551;51.046;7.010;2022-08-25T15:40:07;100576.44;;;36.10;25.92
3082;BME280;1551;51.046;7.010;2022-08-25T15:42:56;100570.34;;;36.16;25.82
3082;BME280;1551;51.046;7.010;2022-08-25T15:45:47;100567.22;;;35.98;25.17
3082;BME280;1551;51.046;7.010;2022-08-25T15:48:36;100575.63;;;35.86;25.53
3082;BME280;1551;51.046;7.010;2022-08-25T15:51:26;100563.72;;;35.60;24.91
3082;BME280;1551;51.046;7.010;2022-08-25T15:54:15;100566.72;;;35.57;25.68
3082;BME280;1551;51.046;7.010;2022-08-25T15:57:04;100578.97;;;35.43;25.47
3082;BME280;1551;51.046;7.010;2022-08-25T15:59:53;100566.03;;;35.40;25.97
3082;BME280;1551;51.046;7.010;2022-08-25T16:02:43;100568.56;;;35.34;25.68
3082;BME280;1551;51.046;7.010;2022-08-25T16:05:35;100564.69;;;35.21;26.67
3082;BME280;1551;51.046;7.010;2022-08-25T16:08:24;100560.81;;;35.24;25.65
3082;BME280;1551;51.046;7.010;2022-08-25T16:11:19;100557.16;;;35.25;26.12
3082;BME280;1551;51.046;7.010;2022-08-25T16:14:09;100562.28;;;35.04;26.14
3082;BME280;1551;51.046;7.010;2022-08-25T16:16:59;100553.50;;;34.95;26.37
3082;BME280;1551;51.046;7.010;2022-08-25T16:19:48;100560.69;;;34.87;26.33
3082;BME280;1551;51.046;7.010;2022-08-25T16:22:37;100556.13;;;35.03;26.63
3082;BME280;1551;51.046;7.010;2022-08-25T16:25:26;100553.09;;;34.84;27.23
3082;BME280;1551;51.046;7.010;2022-08-25T16:28:16;100552.50;;;34.66;26.62
3082;BME280;1551;51.046;7.010;2022-08-25T16:31:08;100553.81;;;34.70;26.80
3082;BME280;1551;51.046;7.010;2022-08-25T16:33:58;100557.53;;;34.61;27.11
3082;BME280;1551;51.046;7.010;2022-08-25T16:36:47;100551.91;;;34.55;27.29
3082;BME280;1551;51.046;7.010;2022-08-25T16:39:36;100541.78;;;34.43;27.21
3082;BME280;1551;51.046;7.010;2022-08-25T16:42:26;100552.47;;;34.19;27.50
3082;BME280;1551;51.046;7.010;2022-08-25T16:45:15;100540.53;;;34.15;27.42
3082;BME280;1551;51.046;7.010;2022-08-25T16:48:05;100543.25;;;34.07;27.52
3082;BME280;1551;51.046;7.010;2022-08-25T16:50:55;100548.03;;;34.11;27.20
3082;BME280;1551;51.046;7.010;2022-08-25T16:53:44;100548.88;;;34.04;27.29
3082;BME280;1551;51.046;7.010;2022-08-25T16:56:52;100553.66;;;34.00;26.85